• Join FlightAware (Why Join?)
  • Login
  • US Flag 
12:04AM EDT


 

Airport Tracker/Info


-or-


 

Live Flight TrackerFlight Track Log ✈ N118JV ✈ 05-May-2014 ✈ KLRD - MMAN / NTR

Flight Track Log - Related Links

Times and Time Zones

All times are in EDT time to prevent confusion due to time zone crossing. See the N118JV flight status page for this flight to view local times or setup timezone preferences in your user account.

Time Position Orientation Groundspeed Altitude Reporting Facility
EDT Latitude Longitude Course Direction KTS MPH feet Rate Location/Type
08:27PM 27.5231 -99.4653 200° South 134 154 1,200  Level Houston Center
08:28PM 27.4931 -99.4972 223° Southwest 147 169 2,600 1,260 Climbing Houston Center
08:29PM 27.4625 -99.5269 221° Southwest 147 169 3,900 1,380 Climbing Houston Center
08:30PM 27.4303 -99.5556 218° Southwest 147 169 5,500 1,500 Climbing Houston Center
08:32PM 27.3197 -99.5921 200° South  Level FlightAware Approximate
08:32PM 27.3544 -99.5891 200° South  Level Estimated
08:39PM 27.0117 -99.7399 200° South  Level Estimated
08:40PM 26.9609 -99.7248 165° South  Level FlightAware Approximate
08:41PM 26.9125 -99.7477 196° South  Level Estimated
08:42PM 26.8611 -99.7605 192° South  Level FlightAware Approximate
08:43PM 26.8098 -99.7732 192° South  Level FlightAware Approximate
08:44PM 26.7584 -99.7859 192° South  Level FlightAware Approximate
08:45PM 26.7071 -99.7986 192° South  Level FlightAware Approximate
08:46PM 26.6558 -99.8113 192° South  Level FlightAware Approximate
08:47PM 26.6045 -99.8240 192° South  Level FlightAware Approximate
08:48PM 26.5575 -99.8504 198° South  Level Estimated
08:49PM 26.5065 -99.8650 194° South  Level FlightAware Approximate
08:50PM 26.4556 -99.8795 194° South  Level FlightAware Approximate
08:51PM 26.4095 -99.9076 195° South  Level Estimated
08:52PM 26.3579 -99.9190 191° South  Level FlightAware Approximate
08:53PM 26.3063 -99.9303 191° South  Level FlightAware Approximate
08:54PM 26.2547 -99.9416 191° South  Level FlightAware Approximate
08:55PM 26.2113 -99.9747 197° South  Level Estimated
08:56PM 26.1597 -99.9859 191° South  Level FlightAware Approximate
08:57PM 26.1081 -99.9970 191° South  Level FlightAware Approximate
08:58PM 26.0565 -100.0081 191° South  Level FlightAware Approximate
08:59PM 26.0208 -100.0510 193° South  Level Estimated
09:00PM 25.9851 -100.0940 197° South  Level Estimated
09:01PM 25.9333 -100.0835 170° South  Level FlightAware Approximate
09:02PM 25.9102 -100.1360 200° South  Level Estimated
09:03PM 25.8589 -100.1231 167° South  Level FlightAware Approximate
09:04PM 25.8623 -100.1814 310° West  Level Estimated
09:05PM 25.8257 -100.1847 299° West  Level FlightAware Approximate
09:06PM 25.8518 -100.2352 318° Northwest  Level FlightAware Approximate
09:07PM 25.8667 -100.2500 318° Northwest  Level FlightAware Approximate
09:08PM 25.8656 -100.2372 318° Northwest  Level Estimated
09:09PM 25.8656 -100.2372 318° Northwest  Level Estimated
09:10PM 25.8656 -100.2372 318° Northwest  Level Estimated
09:11PM 25.8656 -100.2372 318° Northwest  Level Estimated
09:12PM 25.8656 -100.2372 318° Northwest  Level Estimated
09:13PM 25.8656 -100.2372 318° Northwest  Level Estimated
09:14PM 25.8656 -100.2372 318° Northwest  Level Estimated
09:15PM 25.8656 -100.2372 318° Northwest  Level Estimated
09:16PM 25.8656 -100.2372 318° Northwest  Level Estimated
09:17PM 25.8656 -100.2372 318° Northwest  Level Estimated
09:18PM 25.8656 -100.2372 318° Northwest  Level Estimated
09:19PM 25.8656 -100.2372 318° Northwest  Level Estimated
09:20PM 25.8656 -100.2372 318° Northwest  Level Estimated
09:21PM 25.8656 -100.2372 318° Northwest  Level Estimated
09:22PM 25.8656 -100.2372 318° Northwest  Level Estimated